This is the latest recevied weather packets stored in our database for station/object W1CAT. If no packets are shown the sender has not sent any weather packets the latest 1 day(s).
| Time | Temp. | Humidity | Pressure | Rain* | Wind** | Luminosity | Snow |
|---|---|---|---|---|---|---|---|
| 1777997086 | 15° C | 42% | - | 0 mm | 0.89 m/s, 181° | - | - |
| 1777996782 | 15° C | 43% | - | 0 mm | 0 m/s | - | - |
| 1777996479 | 13.89° C | 46% | - | 0 mm | 1.34 m/s, 162° | - | - |
| 1777996175 | 13.89° C | 45% | - | 0 mm | 0.89 m/s, 143° | - | - |
| 1777995872 | 13.89° C | 45% | - | 0 mm | 1.79 m/s, 114° | - | - |
| 1777995567 | 12.78° C | 47% | - | 0 mm | 0.45 m/s, 99° | - | - |
| 1777995265 | 12.78° C | 49% | - | 0 mm | 0.45 m/s, 118° | - | - |
| 1777994962 | 12.22° C | 51% | - | 0 mm | 0.45 m/s, 78° | - | - |
| 1777994659 | 12.78° C | 50% | - | 0 mm | 0.45 m/s, 161° | - | - |
| 1777994359 | 11.67° C | 53% | - | 0 mm | 0 m/s | - | - |
| 1777994055 | 11.11° C | 55% | - | 0 mm | 0.45 m/s, 125° | - | - |
| 1777993753 | 11.11° C | 55% | - | 0 mm | 0 m/s | - | - |
| 1777993450 | 11.67° C | 52% | - | 0 mm | 0.45 m/s, 152° | - | - |
| 1777993150 | 11.67° C | 55% | - | 0 mm | 0 m/s | - | - |
| 1777992848 | 11.11° C | 54% | - | 0 mm | 0.45 m/s, 183° | - | - |
| 1777992546 | 10.56° C | 57% | - | 0 mm | 0.45 m/s, 123° | - | - |
| 1777992244 | 11.11° C | 56% | - | 0 mm | 1.34 m/s, 139° | - | - |
| 1777991941 | 11.67° C | 54% | - | 0 mm | 0.45 m/s, 111° | - | - |
| 1777991638 | 11.67° C | 54% | - | 0 mm | 0.89 m/s, 131° | - | - |
| 1777991335 | 11.67° C | 54% | - | 0 mm | 0.45 m/s, 108° | - | - |
| 1777991033 | 10.56° C | 57% | - | 0 mm | 0 m/s | - | - |
| 1777990730 | 10° C | 58% | - | 0 mm | 0.45 m/s, 149° | - | - |
| 1777990427 | 8.89° C | 61% | - | 0 mm | 0.45 m/s, 107° | - | - |
| 1777990123 | 9.44° C | 58% | - | 0 mm | 0.89 m/s, 150° | - | - |
| 1777989820 | 8.89° C | 62% | - | 0 mm | 0.45 m/s, 96° | - | - |
* Rain latest hour (hover to see other rain measurements)
** Current wind speed in m/s (hover to see current wind gust speed)